Huvudsida
METAR-TAF:

METAR-TAF

Flygplatser :

Kristiansands flygplats. Kjevik

Kristiansand, Norge

latitud: 58-12N, longitud: 008-05E, höjd: 1 m

Aktuellt väderrapport

Denna rapport gjordes för 39 minuter sedan, klockan 09:20 UTC
Vind 11 kt från väst/sydväst
Temperatur 9°C
Fuktighet 61%
Tryck 1021 hPa
Sikt 10 km eller mer
Spridda moln på en höjd av 4900 ft

METAR: ENCN 200920Z 25011KT 9999 SCT049 09/02 Q1021

Tid: 10:59 (09:59 UTC)

Väderprognos

Denna rapport gjordes för 1 timme och 59 minuter sedan, klockan 08:00 UTC
Prognos gäller från 20 kl. 09 UTC till 20 kl. 18 UTC
Vind 8 kt från sydväst
Sikt 10 km eller mer
Få moln på en höjd av 3000 ft
Blir
från 20 kl. 09 UTC till 20 kl. 10 UTC
Vind 10 kt från väst/nordväst

TAF: ENCN 200800Z 2009/2018 23008KT 9999 FEW030 BECMG 2009/2010 29010KT

Aktuella väderrapporter och prognoser från 4000 flygplatser (METAR- och TAF-rapporter).

De tillgängliga stationerna syns som gula och röda prickar på kartan.

För musen över prickarna för att se namnen på stationerna.

Klicka sedan för att få väderrapporter och prognoser.

För att ändra kartan: Klicka på de gröna knapparna med ett svart kors på för att zooma in; den gröna knappen med ett streck på för att zooma ut; eller på de gröna pilarna för angränsande kartor.


METAR-TAF: